createdAt,value
2018-02-27T00:01:12.207Z,8.00
2018-02-27T00:03:39.570Z,7.40
2018-02-27T00:06:06.944Z,6.85
2018-02-27T00:08:34.303Z,7.75
2018-02-27T00:11:01.691Z,7.32
2018-02-27T00:13:29.087Z,7.97
2018-02-27T00:15:56.440Z,7.25
2018-02-27T00:18:23.809Z,9.18
2018-02-27T00:20:51.156Z,7.40
2018-02-27T00:23:18.532Z,7.85
2018-02-27T00:25:45.871Z,7.90
2018-02-27T00:28:13.280Z,8.07
2018-02-27T00:30:40.746Z,7.90
2018-02-27T00:33:08.109Z,7.35
2018-02-27T00:35:35.472Z,7.03
2018-02-27T00:38:02.862Z,8.10
2018-02-27T00:40:30.228Z,8.00
2018-02-27T00:42:57.574Z,8.75
2018-02-27T00:45:24.939Z,8.43
2018-02-27T00:47:52.411Z,7.12
2018-02-27T00:50:19.791Z,7.62
2018-02-27T00:52:47.131Z,7.72
2018-02-27T00:55:14.608Z,7.32
2018-02-27T00:57:42.060Z,8.70
2018-02-27T01:00:09.468Z,7.97
2018-02-27T01:02:36.842Z,8.50
2018-02-27T01:05:04.221Z,7.60
2018-02-27T01:07:31.591Z,8.50
2018-02-27T01:09:59.033Z,8.55
2018-02-27T01:12:26.376Z,8.43
2018-02-27T01:14:53.744Z,8.45
2018-02-27T01:17:21.081Z,9.75
2018-02-27T01:19:48.440Z,8.38
2018-02-27T01:22:15.782Z,8.18
2018-02-27T01:24:43.264Z,8.52
2018-02-27T01:27:10.616Z,8.57
2018-02-27T01:29:37.979Z,6.78
2018-02-27T01:32:05.540Z,9.05
2018-02-27T01:34:32.954Z,8.27
2018-02-27T01:37:00.329Z,7.60
2018-02-27T01:39:27.666Z,9.02
2018-02-27T01:41:55.058Z,9.10
2018-02-27T01:44:22.431Z,8.85
2018-02-27T01:46:49.811Z,8.45
2018-02-27T01:49:17.149Z,7.90
2018-02-27T01:51:44.523Z,8.95
2018-02-27T01:54:11.927Z,8.82
2018-02-27T01:56:39.302Z,8.38
2018-02-27T01:59:06.683Z,8.43
2018-02-27T02:01:34.051Z,8.85
2018-02-27T02:04:01.390Z,9.00
2018-02-27T02:06:28.760Z,9.18
2018-02-27T02:08:56.159Z,9.63
2018-02-27T02:11:23.553Z,8.50
2018-02-27T02:13:50.898Z,8.40
2018-02-27T02:16:18.292Z,8.32
2018-02-27T02:18:45.633Z,8.18
2018-02-27T02:21:13.030Z,9.50
2018-02-27T02:23:40.383Z,7.65
2018-02-27T02:26:07.777Z,9.35
2018-02-27T02:28:35.143Z,9.50
2018-02-27T02:31:02.554Z,9.50
2018-02-27T02:33:29.920Z,8.50
2018-02-27T02:35:57.306Z,9.68
2018-02-27T02:38:24.720Z,8.82
2018-02-27T02:40:52.177Z,10.90
2018-02-27T02:43:19.553Z,9.10
2018-02-27T02:45:46.891Z,9.38
2018-02-27T02:48:14.305Z,8.82
2018-02-27T02:50:41.672Z,9.48
2018-02-27T02:53:09.156Z,10.57
2018-02-27T02:55:36.515Z,10.25
2018-02-27T02:58:03.877Z,9.20
2018-02-27T03:00:31.224Z,8.80
2018-02-27T03:02:58.650Z,8.57
2018-02-27T03:05:26.025Z,9.25
2018-02-27T03:07:53.489Z,8.77
2018-02-27T03:10:20.845Z,8.85
2018-02-27T03:12:48.217Z,9.07
2018-02-27T03:15:15.654Z,7.72
2018-02-27T03:17:43.008Z,8.05
2018-02-27T03:20:10.399Z,7.97
2018-02-27T03:22:37.750Z,8.40
2018-02-27T03:25:05.114Z,8.35
2018-02-27T03:27:32.457Z,8.02
2018-02-27T03:29:59.818Z,8.73
2018-02-27T03:32:27.238Z,8.50
2018-02-27T03:34:54.700Z,8.35
2018-02-27T03:37:22.034Z,8.05
2018-02-27T03:39:49.431Z,8.07
2018-02-27T03:42:16.777Z,8.50
2018-02-27T03:44:44.166Z,8.18
2018-02-27T03:47:11.516Z,8.40
2018-02-27T03:49:38.906Z,9.10
2018-02-27T03:52:06.247Z,9.48
2018-02-27T03:54:33.578Z,8.05
2018-02-27T03:57:00.945Z,8.75
2018-02-27T03:59:28.388Z,8.50
2018-02-27T04:01:55.764Z,9.90
2018-02-27T04:04:23.128Z,9.82
2018-02-27T04:06:50.487Z,8.43
2018-02-27T04:09:17.822Z,8.88
2018-02-27T04:11:45.219Z,8.40
2018-02-27T04:14:12.675Z,9.63
2018-02-27T04:16:40.056Z,14.50
2018-02-27T04:19:07.436Z,14.90
2018-02-27T04:21:34.808Z,13.05
2018-02-27T04:24:02.195Z,10.05
2018-02-27T04:26:29.660Z,9.30
2018-02-27T04:28:57.007Z,9.35
2018-02-27T04:31:24.372Z,10.43
2018-02-27T04:33:51.819Z,10.18
2018-02-27T04:36:19.199Z,10.43
2018-02-27T04:38:46.540Z,9.70
2018-02-27T04:41:13.917Z,9.70
2018-02-27T04:43:41.287Z,9.77
2018-02-27T04:46:08.694Z,9.52
2018-02-27T04:48:36.102Z,10.30
2018-02-27T04:51:03.426Z,11.32
2018-02-27T04:53:30.795Z,10.38
2018-02-27T04:55:58.141Z,9.93
2018-02-27T04:58:25.548Z,10.70
2018-02-27T05:00:52.924Z,10.25
2018-02-27T05:03:20.316Z,10.32
2018-02-27T05:05:47.650Z,10.95
2018-02-27T05:08:15.021Z,10.70
2018-02-27T05:10:42.379Z,9.57
2018-02-27T05:13:09.773Z,10.88
2018-02-27T05:15:37.126Z,10.68
2018-02-27T05:18:04.502Z,9.95
2018-02-27T05:20:31.862Z,10.30
2018-02-27T05:22:59.320Z,11.95
2018-02-27T05:25:26.664Z,9.30
2018-02-27T05:27:54.037Z,9.35
2018-02-27T05:30:21.383Z,10.00
2018-02-27T05:32:48.843Z,10.10
2018-02-27T05:35:16.360Z,9.18
2018-02-27T05:37:43.715Z,8.80
2018-02-27T05:40:11.073Z,9.20
2018-02-27T05:42:38.480Z,10.70
2018-02-27T05:45:05.862Z,9.13
2018-02-27T05:47:33.201Z,9.15
2018-02-27T05:50:00.567Z,10.35
2018-02-27T05:52:27.921Z,9.38
2018-02-27T05:54:55.283Z,8.55
2018-02-27T05:57:22.623Z,9.35
2018-02-27T05:59:50.024Z,8.50
2018-02-27T06:02:17.380Z,9.55
2018-02-27T06:04:44.749Z,9.00
2018-02-27T06:07:12.093Z,10.55
2018-02-27T06:09:39.486Z,9.20
2018-02-27T06:12:06.823Z,9.02
2018-02-27T06:14:34.191Z,8.68
2018-02-27T06:17:01.525Z,7.93
2018-02-27T06:19:28.987Z,7.57
2018-02-27T06:21:56.328Z,8.55
2018-02-27T06:24:23.713Z,8.38
2018-02-27T06:26:51.048Z,9.43
2018-02-27T06:29:18.418Z,8.73
2018-02-27T06:31:45.758Z,8.23
2018-02-27T06:34:13.146Z,9.52
2018-02-27T06:36:40.511Z,8.73
2018-02-27T06:39:07.927Z,8.35
2018-02-27T06:41:35.282Z,9.68
2018-02-27T06:44:02.652Z,10.27
2018-02-27T06:46:30.001Z,10.05
2018-02-27T06:48:57.374Z,8.50
2018-02-27T06:51:24.734Z,9.10
2018-02-27T06:53:52.109Z,9.45
2018-02-27T06:56:19.461Z,15.68
2018-02-27T06:58:46.867Z,10.80
2018-02-27T07:01:14.218Z,9.63
2018-02-27T07:03:41.585Z,9.38
2018-02-27T07:06:08.923Z,8.77
2018-02-27T07:08:36.282Z,9.15
2018-02-27T07:11:03.621Z,9.30
2018-02-27T07:13:31.008Z,21.27
2018-02-27T07:15:58.404Z,16.48
2018-02-27T07:18:25.768Z,10.35
2018-02-27T07:20:53.142Z,9.52
2018-02-27T07:23:20.488Z,7.75
2018-02-27T07:25:47.863Z,9.32
2018-02-27T07:28:15.198Z,9.02
2018-02-27T07:30:42.566Z,9.60
2018-02-27T07:33:09.923Z,10.57
2018-02-27T07:35:37.288Z,9.15
2018-02-27T07:38:04.635Z,9.15
2018-02-27T07:40:32.022Z,9.10
2018-02-27T07:42:59.383Z,9.02
2018-02-27T07:45:26.745Z,8.60
2018-02-27T07:47:54.099Z,9.32
2018-02-27T07:50:21.459Z,10.00
2018-02-27T07:52:48.802Z,9.73
2018-02-27T07:55:16.187Z,10.15
2018-02-27T07:57:43.533Z,10.35
2018-02-27T08:00:10.932Z,10.85
2018-02-27T08:02:38.390Z,9.73
2018-02-27T08:05:05.746Z,8.98
2018-02-27T08:07:33.076Z,7.40
2018-02-27T08:10:00.447Z,9.85
2018-02-27T08:12:27.782Z,6.55
2018-02-27T08:14:55.150Z,10.60
2018-02-27T08:17:22.620Z,10.40
2018-02-27T08:19:50.009Z,10.85
2018-02-27T08:22:17.356Z,11.45
2018-02-27T08:24:44.731Z,10.23
2018-02-27T08:27:12.124Z,12.37
2018-02-27T08:29:39.491Z,11.43
2018-02-27T08:32:06.886Z,10.60
2018-02-27T08:34:34.262Z,11.43
2018-02-27T08:37:01.646Z,11.20
2018-02-27T08:39:29.006Z,12.77
2018-02-27T08:41:56.351Z,10.38
2018-02-27T08:44:23.744Z,12.50
2018-02-27T08:46:51.086Z,11.98
2018-02-27T08:49:18.448Z,11.52
2018-02-27T08:51:45.867Z,11.75
2018-02-27T08:54:13.219Z,13.43
2018-02-27T08:56:40.591Z,13.88
2018-02-27T08:59:07.947Z,13.18
2018-02-27T09:01:35.319Z,13.07
2018-02-27T09:04:02.670Z,11.63
2018-02-27T09:06:30.033Z,11.00
2018-02-27T09:08:57.376Z,11.65
2018-02-27T09:11:24.742Z,14.50
2018-02-27T09:13:52.086Z,14.15
2018-02-27T09:16:19.460Z,13.68
2018-02-27T09:18:46.806Z,13.57
2018-02-27T09:21:14.203Z,13.48
2018-02-27T09:23:41.547Z,14.32
2018-02-27T09:26:08.928Z,12.48
2018-02-27T09:28:36.288Z,13.25
2018-02-27T09:31:03.656Z,13.60
2018-02-27T09:33:31.036Z,13.80
2018-02-27T09:35:58.403Z,12.37
2018-02-27T09:38:25.761Z,12.90
2018-02-27T09:40:53.136Z,10.95
2018-02-27T09:43:20.541Z,16.48
2018-02-27T09:45:47.919Z,29.45
2018-02-27T09:48:15.320Z,12.60
2018-02-27T09:50:42.697Z,12.65
2018-02-27T09:53:10.048Z,15.30
2018-02-27T09:55:37.421Z,13.75
2018-02-27T09:58:04.813Z,15.10
2018-02-27T10:00:32.154Z,14.40
2018-02-27T10:02:59.507Z,13.80
2018-02-27T10:05:26.875Z,15.50
2018-02-27T10:07:54.248Z,14.00
2018-02-27T10:10:21.612Z,13.80
2018-02-27T10:12:48.955Z,13.48
2018-02-27T10:15:16.341Z,14.57
2018-02-27T10:17:43.682Z,15.40
2018-02-27T10:20:11.031Z,16.05
2018-02-27T10:22:38.403Z,14.25
2018-02-27T10:25:05.762Z,14.82
2018-02-27T10:27:33.189Z,14.70
2018-02-27T10:30:00.508Z,15.38
2018-02-27T10:32:27.885Z,14.23
2018-02-27T10:34:55.243Z,15.45
2018-02-27T10:37:22.610Z,16.17
2018-02-27T10:39:49.952Z,15.50
2018-02-27T10:42:17.459Z,16.10
2018-02-27T10:44:44.803Z,17.35
2018-02-27T10:47:12.270Z,16.83
2018-02-27T10:49:39.630Z,14.25
2018-02-27T10:52:07.023Z,16.55
2018-02-27T10:54:34.372Z,15.73
2018-02-27T10:57:01.747Z,13.10
2018-02-27T10:59:29.117Z,15.10
2018-02-27T11:01:56.506Z,16.20
2018-02-27T11:04:23.846Z,16.37
2018-02-27T11:06:51.199Z,18.70
2018-02-27T11:09:18.668Z,15.75
2018-02-27T11:11:46.015Z,15.73
2018-02-27T11:14:13.387Z,15.13
2018-02-27T11:16:40.736Z,17.40
2018-02-27T11:19:08.107Z,19.10
2018-02-27T11:21:35.452Z,22.10
2018-02-27T11:24:02.830Z,17.50
2018-02-27T11:26:30.199Z,17.95
2018-02-27T11:28:57.574Z,15.50
2018-02-27T11:31:24.935Z,16.48
2018-02-27T11:33:52.314Z,17.67
2018-02-27T11:36:19.733Z,15.73
2018-02-27T11:38:47.050Z,16.65
2018-02-27T11:41:14.422Z,20.02
2018-02-27T11:43:41.798Z,18.42
2018-02-27T11:46:09.291Z,19.23
2018-02-27T11:48:36.639Z,19.15
2018-02-27T11:51:03.982Z,20.37
2018-02-27T11:53:31.364Z,16.40
2018-02-27T11:55:58.811Z,19.35
2018-02-27T11:58:26.184Z,20.40
2018-02-27T12:00:53.546Z,17.85
2018-02-27T12:03:20.917Z,18.62
2018-02-27T12:05:48.258Z,19.27
2018-02-27T12:08:15.712Z,18.40
2018-02-27T12:10:43.047Z,20.02
2018-02-27T12:13:10.442Z,17.02
2018-02-27T12:15:37.808Z,19.00
2018-02-27T12:18:05.150Z,15.27
2018-02-27T12:20:32.526Z,17.20
2018-02-27T12:22:59.874Z,18.25
2018-02-27T12:25:27.263Z,16.20
2018-02-27T12:27:54.626Z,18.17
2018-02-27T12:30:22.085Z,19.17
2018-02-27T12:32:49.429Z,17.20
2018-02-27T12:35:16.803Z,18.85
2018-02-27T12:37:44.138Z,16.65
2018-02-27T12:40:11.499Z,15.23
2018-02-27T12:42:38.885Z,17.48
2018-02-27T12:45:06.236Z,15.90
2018-02-27T12:47:33.627Z,16.27
2018-02-27T12:50:00.984Z,15.27
2018-02-27T12:52:28.371Z,17.35
2018-02-27T12:54:55.710Z,17.60
2018-02-27T12:57:23.102Z,20.15
2018-02-27T12:59:50.442Z,21.77
2018-02-27T13:02:17.781Z,14.25
2018-02-27T13:04:45.151Z,22.05
2018-02-27T13:07:12.490Z,39.72
2018-02-27T13:09:39.862Z,51.45
2018-02-27T13:12:07.225Z,19.75
2018-02-27T13:14:34.613Z,19.85
2018-02-27T13:17:01.970Z,15.82
2018-02-27T13:19:29.339Z,20.60
2018-02-27T13:21:56.685Z,21.80
2018-02-27T13:24:24.073Z,20.77
2018-02-27T13:26:51.423Z,19.52
2018-02-27T13:29:18.766Z,18.95
2018-02-27T13:31:46.133Z,19.17
2018-02-27T13:34:13.482Z,18.42
2018-02-27T13:36:40.854Z,18.48
2018-02-27T13:39:08.215Z,20.65
2018-02-27T13:41:35.615Z,20.60
2018-02-27T13:44:02.960Z,18.70
2018-02-27T13:46:30.332Z,19.05
2018-02-27T13:49:04.000Z,19.70
2018-02-27T13:51:25.102Z,17.02
2018-02-27T13:53:52.469Z,17.40
2018-02-27T13:56:19.858Z,18.27
2018-02-27T13:58:47.208Z,16.52
2018-02-27T14:01:14.550Z,15.65
2018-02-27T14:03:41.925Z,21.73
2018-02-27T14:06:09.273Z,20.37
2018-02-27T14:08:36.646Z,19.23
2018-02-27T14:11:03.981Z,19.45
2018-02-27T14:13:31.358Z,19.02
2018-02-27T14:15:58.720Z,17.52
2018-02-27T14:18:26.103Z,17.08
2018-02-27T14:20:53.458Z,16.25
2018-02-27T14:23:20.874Z,15.93
2018-02-27T14:25:48.252Z,16.33
2018-02-27T14:28:15.609Z,17.08
2018-02-27T14:30:43.015Z,13.95
2018-02-27T14:33:10.359Z,15.05
2018-02-27T14:35:37.736Z,17.83
2018-02-27T14:38:05.080Z,18.85
2018-02-27T14:40:32.492Z,17.75
2018-02-27T14:42:59.843Z,17.20
2018-02-27T14:45:27.299Z,16.70
2018-02-27T14:47:54.650Z,18.08
2018-02-27T14:50:22.162Z,18.60
2018-02-27T14:52:49.539Z,16.98
2018-02-27T14:55:16.930Z,18.50
2018-02-27T14:57:44.318Z,20.83
2018-02-27T15:00:11.687Z,17.85
2018-02-27T15:02:39.071Z,18.73
2018-02-27T15:05:06.430Z,17.10
2018-02-27T15:07:33.807Z,20.00
2018-02-27T15:10:01.162Z,18.33
2018-02-27T15:12:28.560Z,15.00
2018-02-27T15:14:55.907Z,17.02
2018-02-27T15:17:23.252Z,16.62
2018-02-27T15:19:50.623Z,19.08
2018-02-27T15:22:17.976Z,17.85
2018-02-27T15:24:45.368Z,15.60
2018-02-27T15:27:12.726Z,15.65
2018-02-27T15:29:40.096Z,15.82
2018-02-27T15:32:07.465Z,15.25
2018-02-27T15:34:34.863Z,16.40
2018-02-27T15:37:02.222Z,16.15
2018-02-27T15:39:29.586Z,15.75
2018-02-27T15:41:56.940Z,15.80
2018-02-27T15:44:24.423Z,14.45
2018-02-27T15:46:51.776Z,17.77
2018-02-27T15:49:19.122Z,16.83
2018-02-27T15:51:46.506Z,16.10
2018-02-27T15:54:13.860Z,15.50
2018-02-27T15:56:41.240Z,13.57
2018-02-27T15:59:08.642Z,15.52
2018-02-27T16:01:36.211Z,14.13
2018-02-27T16:04:03.568Z,13.88
2018-02-27T16:06:30.963Z,14.90
2018-02-27T16:08:58.306Z,21.83
2018-02-27T16:11:25.677Z,21.50
2018-02-27T16:13:53.024Z,16.48
2018-02-27T16:16:20.404Z,15.07
2018-02-27T16:18:47.753Z,16.25
2018-02-27T16:21:15.097Z,15.70
2018-02-27T16:23:42.517Z,15.00
2018-02-27T16:26:09.871Z,16.10
2018-02-27T16:28:37.251Z,14.70
2018-02-27T16:31:04.603Z,13.30
2018-02-27T16:33:35.791Z,13.60
2018-02-27T16:36:03.147Z,13.70
2018-02-27T16:38:30.551Z,14.35
2018-02-27T16:40:57.898Z,14.30
2018-02-27T16:43:25.300Z,15.23
2018-02-27T16:45:52.643Z,15.00
2018-02-27T16:48:20.057Z,14.63
2018-02-27T16:50:47.451Z,16.10
2018-02-27T16:53:14.817Z,15.07
2018-02-27T16:55:42.194Z,14.60
2018-02-27T16:58:09.541Z,15.93
2018-02-27T17:00:36.937Z,14.90
2018-02-27T17:03:04.283Z,15.82
2018-02-27T17:05:31.659Z,16.00
2018-02-27T17:07:59.004Z,17.55
2018-02-27T17:10:26.383Z,17.50
2018-02-27T17:12:53.725Z,16.42
2018-02-27T17:15:21.101Z,15.82
2018-02-27T17:17:48.451Z,15.35
2018-02-27T17:20:15.834Z,16.30
2018-02-27T17:22:43.242Z,15.90
2018-02-27T17:25:10.575Z,15.68
2018-02-27T17:27:37.916Z,16.15
2018-02-27T17:30:05.293Z,14.98
2018-02-27T17:32:32.652Z,15.77
2018-02-27T17:35:00.025Z,16.50
2018-02-27T17:37:27.378Z,18.35
2018-02-27T17:39:54.752Z,15.00
2018-02-27T17:42:22.098Z,15.50
2018-02-27T17:44:49.474Z,16.67
2018-02-27T17:47:16.818Z,15.65
2018-02-27T17:49:44.188Z,17.27
2018-02-27T17:52:11.531Z,17.45
2018-02-27T17:54:38.880Z,15.93
2018-02-27T17:57:06.255Z,17.02
2018-02-27T17:59:33.976Z,17.33
2018-02-27T18:02:01.516Z,17.00
2018-02-27T18:04:28.962Z,17.27
2018-02-27T18:06:56.340Z,17.20
2018-02-27T18:09:23.681Z,17.48
2018-02-27T18:11:53.004Z,19.05
2018-02-27T18:14:20.862Z,18.05
2018-02-27T18:16:50.046Z,20.23
2018-02-27T18:19:17.403Z,24.33
2018-02-27T18:21:44.780Z,20.25
2018-02-27T18:24:12.653Z,20.15
2018-02-27T18:26:40.035Z,21.50
2018-02-27T18:29:09.210Z,20.12
2018-02-27T18:31:36.588Z,17.80
2018-02-27T18:34:06.189Z,20.80
2018-02-27T18:36:33.660Z,19.05
2018-02-27T18:39:01.006Z,19.27
2018-02-27T18:41:28.400Z,19.50
2018-02-27T18:43:55.920Z,19.20
2018-02-27T18:46:23.187Z,18.55
2018-02-27T18:48:50.531Z,19.87
2018-02-27T18:51:17.910Z,19.48
2018-02-27T18:53:45.263Z,19.87
2018-02-27T18:56:12.650Z,19.73
2018-02-27T18:58:40.001Z,20.52
2018-02-27T19:01:07.410Z,18.90
2018-02-27T19:03:34.759Z,20.35
2018-02-27T19:06:02.134Z,19.95
2018-02-27T19:08:29.526Z,20.75
2018-02-27T19:10:56.866Z,20.60
2018-02-27T19:13:24.307Z,21.15
2018-02-27T19:15:51.664Z,22.08
2018-02-27T19:18:19.041Z,22.60
2018-02-27T19:20:46.392Z,22.15
2018-02-27T19:23:13.811Z,21.10
2018-02-27T19:25:41.193Z,21.08
2018-02-27T19:28:08.590Z,21.05
2018-02-27T19:30:35.943Z,23.73
2018-02-27T19:33:03.336Z,25.30
2018-02-27T19:35:30.905Z,25.33
2018-02-27T19:37:58.302Z,24.75
2018-02-27T19:40:25.693Z,23.45
2018-02-27T19:42:53.083Z,22.13
2018-02-27T19:45:20.451Z,21.90
2018-02-27T19:47:50.192Z,23.52
2018-02-27T19:50:17.529Z,22.52
2018-02-27T19:52:44.912Z,22.87
2018-02-27T19:55:12.260Z,23.77
2018-02-27T19:57:39.670Z,25.05
2018-02-27T20:00:07.239Z,22.65
2018-02-27T20:02:34.606Z,23.12
2018-02-27T20:05:02.010Z,24.48
2018-02-27T20:07:29.379Z,23.10
2018-02-27T20:09:56.844Z,23.20
2018-02-27T20:12:24.194Z,23.50
2018-02-27T20:14:51.595Z,24.58
2018-02-27T20:17:18.943Z,23.75
2018-02-27T20:19:46.513Z,26.17
2018-02-27T20:22:13.877Z,23.17
2018-02-27T20:24:41.582Z,22.27
2018-02-27T20:27:09.048Z,21.58
2018-02-27T20:29:36.834Z,20.02
2018-02-27T20:32:04.362Z,21.62
2018-02-27T20:34:32.505Z,22.00
2018-02-27T20:37:00.881Z,23.33
2018-02-27T20:39:28.262Z,20.67
2018-02-27T20:41:55.603Z,21.85
2018-02-27T20:44:22.970Z,22.15
2018-02-27T20:46:50.324Z,23.27
2018-02-27T20:49:17.710Z,23.50
2018-02-27T20:51:45.052Z,22.50
2018-02-27T20:54:12.425Z,22.20
2018-02-27T20:56:39.782Z,22.48
2018-02-27T20:59:07.155Z,21.10
2018-02-27T21:01:34.510Z,23.80
2018-02-27T21:04:01.886Z,21.73
2018-02-27T21:06:29.247Z,24.27
2018-02-27T21:08:56.911Z,22.33
2018-02-27T21:11:24.256Z,21.90
2018-02-27T21:13:51.636Z,22.50
2018-02-27T21:16:18.991Z,21.23
2018-02-27T21:18:46.368Z,20.35
2018-02-27T21:21:13.713Z,21.75
2018-02-27T21:23:41.086Z,20.98
2018-02-27T21:26:08.577Z,19.05
2018-02-27T21:28:36.006Z,20.20
2018-02-27T21:31:03.355Z,19.60
2018-02-27T21:33:30.924Z,20.12
2018-02-27T21:35:58.274Z,19.65
2018-02-27T21:38:25.631Z,20.33
2018-02-27T21:40:53.006Z,19.12
2018-02-27T21:43:20.362Z,19.87
2018-02-27T21:45:47.970Z,20.67
2018-02-27T21:48:15.318Z,20.75
2018-02-27T21:50:42.687Z,20.00
2018-02-27T21:53:10.040Z,19.58
2018-02-27T21:55:37.473Z,21.15
2018-02-27T21:58:04.804Z,19.27
2018-02-27T22:00:32.183Z,20.95
2018-02-27T22:02:59.533Z,20.27
2018-02-27T22:05:27.016Z,21.45
2018-02-27T22:07:54.368Z,21.55
2018-02-27T22:10:21.744Z,20.62
2018-02-27T22:12:49.094Z,24.02
2018-02-27T22:15:16.500Z,25.50
2018-02-27T22:17:43.866Z,24.73
2018-02-27T22:20:11.267Z,25.25
2018-02-27T22:22:39.193Z,24.50
2018-02-27T22:25:06.647Z,25.35
2018-02-27T22:27:34.003Z,23.80
2018-02-27T22:30:01.570Z,23.85
2018-02-27T22:32:28.941Z,25.20
2018-02-27T22:34:56.321Z,24.98
2018-02-27T22:37:23.672Z,24.63
2018-02-27T22:39:51.054Z,24.60
2018-02-27T22:42:18.402Z,24.35
2018-02-27T22:44:45.779Z,26.77
2018-02-27T22:47:13.127Z,25.95
2018-02-27T22:49:40.504Z,28.48
2018-02-27T22:52:07.848Z,28.67
2018-02-27T22:54:35.231Z,26.27
2018-02-27T22:57:02.580Z,27.17
2018-02-27T22:59:29.951Z,28.45
2018-02-27T23:01:57.308Z,28.12
2018-02-27T23:04:24.701Z,26.00
2018-02-27T23:06:52.049Z,26.87
2018-02-27T23:09:19.388Z,25.35
2018-02-27T23:11:46.767Z,26.10
2018-02-27T23:14:14.117Z,26.60
2018-02-27T23:16:41.487Z,26.48
2018-02-27T23:19:08.832Z,27.73
2018-02-27T23:21:36.210Z,27.42
2018-02-27T23:24:05.829Z,27.52
2018-02-27T23:26:33.605Z,28.30
2018-02-27T23:29:02.796Z,26.55
2018-02-27T23:31:30.477Z,25.48
2018-02-27T23:33:58.730Z,26.08
2018-02-27T23:36:26.102Z,25.10
2018-02-27T23:38:53.442Z,24.02
2018-02-27T23:41:20.820Z,25.83
2018-02-27T23:43:48.163Z,24.40
2018-02-27T23:46:15.542Z,24.73
2018-02-27T23:48:42.882Z,23.85
2018-02-27T23:51:10.263Z,22.95
2018-02-27T23:53:37.609Z,24.08
2018-02-27T23:56:04.984Z,24.30
2018-02-27T23:58:32.358Z,23.87
